Time;durP1;ratioP1;P1;durP2;ratioP2;P2;SDS_P1;SDS_P2;PMS_P1;PMS_P2;Temp;Humidity;BMP_temperature;BMP_pressure;BME280_temperature;BME280_humidity;BME280_pressure;Samples;Min_cycle;Max_cycle;Signal;HPM_P1;HPM_P2
2021/03/19 00:02:13;;;;;;;16.10;11.10;;;2.20;99.90;;;;;;5017297;28;20255;-74
2021/03/19 00:04:39;;;;;;;13.37;10.70;;;2.20;99.90;;;;;;5032743;28;20252;-74
2021/03/19 00:07:04;;;;;;;12.70;10.00;;;2.20;99.90;;;;;;5035074;28;20168;-74
2021/03/19 00:09:30;;;;;;;13.90;10.80;;;2.20;99.90;;;;;;5035064;28;20180;-73
2021/03/19 00:11:55;;;;;;;15.33;12.23;;;2.20;99.90;;;;;;5035218;28;20264;-74
2021/03/19 00:14:21;;;;;;;16.43;12.33;;;2.20;99.90;;;;;;5034733;28;20187;-74
2021/03/19 00:16:46;;;;;;;15.60;11.80;;;2.10;99.90;;;;;;5034564;28;20872;-74
2021/03/19 00:19:12;;;;;;;16.90;13.60;;;2.10;99.90;;;;;;5034814;28;20195;-74
2021/03/19 00:21:38;;;;;;;19.87;14.17;;;2.10;99.90;;;;;;5034768;28;20176;-74
2021/03/19 00:24:05;;;;;;;20.23;13.73;;;2.10;99.90;;;;;;5034724;28;20166;-74
2021/03/19 00:26:31;;;;;;;17.23;12.53;;;2.10;99.90;;;;;;5034569;28;20402;-74
2021/03/19 00:28:56;;;;;;;17.83;13.07;;;2.00;99.90;;;;;;5036396;28;20926;-74
2021/03/19 00:31:22;;;;;;;21.33;14.20;;;2.00;99.90;;;;;;5039146;28;20239;-74
2021/03/19 00:33:47;;;;;;;21.20;14.23;;;2.00;99.90;;;;;;5035771;28;20306;-74
2021/03/19 00:36:13;;;;;;;24.80;18.10;;;2.00;99.90;;;;;;5035545;28;20250;-73
2021/03/19 00:38:38;;;;;;;25.80;18.87;;;2.00;99.90;;;;;;5034541;28;20273;-74
2021/03/19 00:41:05;;;;;;;22.93;15.60;;;2.00;99.90;;;;;;5033757;28;20195;-74
2021/03/19 00:43:31;;;;;;;27.67;18.70;;;2.10;99.90;;;;;;5026597;28;20172;-74
2021/03/19 00:45:56;;;;;;;28.67;18.97;;;2.10;99.90;;;;;;5033946;28;20433;-73
2021/03/19 00:48:22;;;;;;;28.80;21.80;;;2.10;99.90;;;;;;5026006;28;20200;-74
2021/03/19 00:50:48;;;;;;;23.97;17.87;;;2.10;99.90;;;;;;5034256;28;20975;-74
2021/03/19 00:53:14;;;;;;;28.10;19.10;;;2.10;99.90;;;;;;5034176;28;20456;-74
2021/03/19 00:55:39;;;;;;;27.10;18.50;;;2.10;99.90;;;;;;5028866;28;20493;-74
2021/03/19 00:58:05;;;;;;;33.87;20.10;;;2.10;99.90;;;;;;5013116;28;20259;-73
2021/03/19 01:00:34;;;;;;;27.03;17.97;;;2.10;99.90;;;;;;5033650;28;20211;-73
2021/03/19 01:03:01;;;;;;;22.67;16.33;;;2.20;99.90;;;;;;5034220;28;20164;-73
2021/03/19 01:05:45;;;;;;;25.67;18.20;;;2.20;99.90;;;;;;5018474;28;20502;-73
2021/03/19 01:08:14;;;;;;;25.37;18.60;;;2.20;99.90;;;;;;5031573;28;20406;-73
2021/03/19 01:10:40;;;;;;;25.20;17.57;;;2.10;99.90;;;;;;5033550;28;20511;-73
2021/03/19 01:13:07;;;;;;;22.40;16.73;;;2.10;99.90;;;;;;5033844;28;20496;-73
2021/03/19 01:15:33;;;;;;;27.43;16.60;;;2.10;99.90;;;;;;5033717;28;20414;-73
2021/03/19 01:17:59;;;;;;;27.77;17.13;;;2.10;99.90;;;;;;5033703;28;20422;-73
2021/03/19 01:20:26;;;;;;;24.07;15.90;;;2.10;99.90;;;;;;5033614;28;20950;-73
2021/03/19 01:22:53;;;;;;;22.70;14.70;;;2.10;99.90;;;;;;5033669;28;20576;-74
2021/03/19 01:25:22;;;;;;;21.37;14.43;;;2.00;99.90;;;;;;5022243;28;20540;-74
2021/03/19 01:27:47;;;;;;;22.93;14.70;;;2.00;99.90;;;;;;5013675;28;20415;-74
2021/03/19 01:30:22;;;;;;;27.17;16.30;;;2.00;99.90;;;;;;5015317;28;20509;-74
2021/03/19 01:32:48;;;;;;;24.30;16.40;;;1.90;99.90;;;;;;5027324;28;20644;-73
2021/03/19 01:35:16;;;;;;;22.90;14.80;;;1.80;99.90;;;;;;5031827;28;20441;-74
2021/03/19 01:37:43;;;;;;;21.80;13.20;;;1.80;99.90;;;;;;5033274;28;20442;-73
2021/03/19 01:40:10;;;;;;;20.40;14.70;;;1.70;99.90;;;;;;5033362;28;20458;-73
2021/03/19 01:42:43;;;;;;;26.27;13.47;;;1.70;99.90;;;;;;5033551;28;20414;-73
2021/03/19 01:45:46;;;;;;;20.67;12.83;;;1.70;99.90;;;;;;5033319;28;20412;-72
2021/03/19 01:48:49;;;;;;;14.93;11.37;;;1.60;99.90;;;;;;5032921;28;20429;-74
2021/03/19 01:51:52;;;;;;;18.73;13.13;;;1.60;99.90;;;;;;5033056;28;20430;-74
2021/03/19 01:54:55;;;;;;;17.77;11.50;;;1.50;99.90;;;;;;5033017;28;20437;-74
2021/03/19 01:57:58;;;;;;;15.03;13.00;;;1.50;99.90;;;;;;5032972;28;20420;-74
2021/03/19 02:01:01;;;;;;;16.07;10.73;;;1.40;99.90;;;;;;5032757;28;20847;-74
2021/03/19 02:04:04;;;;;;;20.10;12.60;;;1.40;99.90;;;;;;5032956;28;20498;-74
2021/03/19 02:07:06;;;;;;;18.73;11.83;;;1.40;99.90;;;;;;5029675;28;20422;-73
2021/03/19 02:10:09;;;;;;;14.97;10.83;;;1.40;99.90;;;;;;5020889;28;20965;-75
2021/03/19 02:13:12;;;;;;;15.63;12.03;;;1.40;99.90;;;;;;5020779;28;20506;-72
2021/03/19 02:16:15;;;;;;;22.23;11.80;;;1.40;99.90;;;;;;5012882;28;20494;-72
2021/03/19 02:19:18;;;;;;;19.63;13.10;;;1.40;99.90;;;;;;5012530;28;20410;-73
2021/03/19 02:22:21;;;;;;;20.63;12.33;;;1.30;99.90;;;;;;5032233;28;20446;-74
2021/03/19 02:25:24;;;;;;;22.70;12.50;;;1.30;99.90;;;;;;5032533;28;20948;-73
2021/03/19 02:28:27;;;;;;;24.97;13.30;;;1.30;99.90;;;;;;5021504;28;20494;-73
2021/03/19 02:31:11;;;;;;;22.27;12.57;;;1.20;99.90;;;;;;5026983;28;20504;-74
2021/03/19 02:33:53;;;;;;;22.27;11.90;;;1.20;99.90;;;;;;5032738;28;21029;-75
2021/03/19 02:36:22;;;;;;;19.93;13.97;;;1.20;99.90;;;;;;5024242;28;20410;-73
2021/03/19 02:38:48;;;;;;;27.90;14.67;;;1.10;99.90;;;;;;5025919;28;20455;-73
2021/03/19 02:41:14;;;;;;;28.03;15.80;;;1.20;99.90;;;;;;5030471;28;21134;-73
2021/03/19 02:43:39;;;;;;;30.03;14.00;;;1.10;99.90;;;;;;5032539;28;20489;-72
2021/03/19 02:46:05;;;;;;;34.93;15.97;;;1.10;99.90;;;;;;5032566;28;20406;-74
2021/03/19 02:48:31;;;;;;;26.20;13.30;;;1.10;99.90;;;;;;5032427;28;20167;-74
2021/03/19 02:50:57;;;;;;;30.23;16.20;;;1.10;99.90;;;;;;5032254;28;20199;-74
2021/03/19 02:53:27;;;;;;;29.47;15.57;;;1.10;99.90;;;;;;5029297;28;20181;-72
2021/03/19 02:55:54;;;;;;;31.77;17.00;;;1.00;99.90;;;;;;5027580;28;20425;-75
2021/03/19 02:58:20;;;;;;;29.30;14.50;;;1.00;99.90;;;;;;5032374;28;20442;-74
2021/03/19 03:00:46;;;;;;;26.90;14.97;;;1.00;99.90;;;;;;5032471;28;20497;-73
2021/03/19 03:03:11;;;;;;;29.90;14.90;;;1.00;99.90;;;;;;5033008;28;20648;-73
2021/03/19 03:05:37;;;;;;;25.97;15.17;;;1.00;99.90;;;;;;5032772;28;20213;-74
2021/03/19 03:08:04;;;;;;;25.43;13.93;;;0.90;99.90;;;;;;5032415;28;20167;-73
2021/03/19 03:10:32;;;;;;;26.67;15.80;;;1.00;99.90;;;;;;5023716;28;20199;-74
2021/03/19 03:12:58;;;;;;;24.90;15.47;;;1.00;99.90;;;;;;5012410;28;20426;-73
2021/03/19 03:15:24;;;;;;;31.70;16.80;;;1.00;99.90;;;;;;5012892;28;20411;-73
2021/03/19 03:17:49;;;;;;;31.17;16.20;;;1.00;99.90;;;;;;5026891;28;20548;-74
2021/03/19 03:20:28;;;;;;;32.20;17.00;;;1.00;99.90;;;;;;5024056;28;20462;-74
2021/03/19 03:22:53;;;;;;;33.20;16.03;;;1.00;99.90;;;;;;5014593;28;20178;-74
2021/03/19 03:25:21;;;;;;;37.57;19.37;;;1.00;99.90;;;;;;5032193;28;20414;-73
2021/03/19 03:27:47;;;;;;;37.93;18.53;;;1.00;99.90;;;;;;5032198;28;20176;-74
2021/03/19 03:30:27;;;;;;;33.60;18.27;;;1.00;99.90;;;;;;5034072;28;20857;-74
2021/03/19 03:32:53;;;;;;;42.03;19.13;;;1.00;99.90;;;;;;5016548;28;20487;-73
2021/03/19 03:35:19;;;;;;;38.67;19.20;;;1.00;99.90;;;;;;5016344;28;20808;-73
2021/03/19 03:37:45;;;;;;;42.17;19.00;;;1.10;99.90;;;;;;5016799;28;20168;-73
2021/03/19 03:40:15;;;;;;;49.80;24.50;;;1.10;99.90;;;;;;5030196;28;20495;-74
2021/03/19 03:42:40;;;;;;;49.07;20.47;;;1.00;99.90;;;;;;5036003;28;20422;-74
2021/03/19 03:45:07;;;;;;;38.57;20.73;;;1.00;99.90;;;;;;5034834;28;20394;-74
2021/03/19 03:47:33;;;;;;;44.87;19.63;;;1.00;99.90;;;;;;5036424;28;20246;-74
2021/03/19 03:49:58;;;;;;;38.67;20.00;;;1.00;99.90;;;;;;5036436;28;20501;-74
2021/03/19 03:52:24;;;;;;;40.47;20.03;;;0.90;99.90;;;;;;5036274;28;20167;-74
2021/03/19 03:54:49;;;;;;;41.57;20.17;;;0.90;99.90;;;;;;5036688;28;20570;-74
2021/03/19 03:57:15;;;;;;;37.73;21.00;;;0.80;99.90;;;;;;5036587;28;20176;-74
2021/03/19 03:59:40;;;;;;;47.07;23.40;;;0.80;99.90;;;;;;5035865;28;20203;-74
2021/03/19 04:02:20;;;;;;;47.13;19.57;;;0.80;99.90;;;;;;5035767;28;20195;-74
2021/03/19 04:04:48;;;;;;;39.60;18.20;;;0.70;99.90;;;;;;5035438;28;20588;-74
2021/03/19 04:07:13;;;;;;;53.43;21.60;;;0.70;99.90;;;;;;5026958;28;20777;-74
2021/03/19 04:09:39;;;;;;;56.40;20.90;;;0.60;99.90;;;;;;5033483;28;20410;-74
2021/03/19 04:12:06;;;;;;;53.13;23.60;;;0.60;99.90;;;;;;5024195;28;20756;-74
2021/03/19 04:14:31;;;;;;;40.90;21.07;;;0.60;99.90;;;;;;5035069;28;20418;-74
2021/03/19 04:16:58;;;;;;;37.20;20.13;;;0.60;99.90;;;;;;5035077;28;20429;-74
2021/03/19 04:19:25;;;;;;;46.17;20.47;;;0.50;99.90;;;;;;5035316;28;20285;-74
2021/03/19 04:21:51;;;;;;;42.03;19.40;;;0.50;99.90;;;;;;5035225;28;20437;-74
2021/03/19 04:24:16;;;;;;;35.80;21.10;;;0.50;99.90;;;;;;5035382;28;20894;-73
2021/03/19 04:26:42;;;;;;;42.23;20.53;;;0.40;99.90;;;;;;5035841;28;20436;-74
2021/03/19 04:29:07;;;;;;;34.23;18.43;;;0.40;99.90;;;;;;5035149;28;20667;-74
2021/03/19 04:31:32;;;;;;;51.07;21.20;;;0.40;99.90;;;;;;5022300;28;20216;-74
2021/03/19 04:33:58;;;;;;;45.77;20.57;;;0.40;99.90;;;;;;5021199;28;20259;-74
2021/03/19 04:36:46;;;;;;;36.57;20.60;;;0.40;99.90;;;;;;5021254;28;20195;-74
2021/03/19 04:39:16;;;;;;;56.00;22.47;;;0.40;99.90;;;;;;5019995;28;20192;-74
2021/03/19 04:41:45;;;;;;;59.60;22.00;;;0.50;99.90;;;;;;5014799;28;20522;-74
2021/03/19 04:44:11;;;;;;;46.40;21.10;;;0.50;99.90;;;;;;5015146;28;20403;-74
2021/03/19 04:46:37;;;;;;;52.10;24.23;;;0.40;99.90;;;;;;4997160;28;20423;-74
2021/03/19 04:49:03;;;;;;;43.63;23.27;;;0.40;99.90;;;;;;5014881;28;20411;-74
2021/03/19 04:51:28;;;;;;;38.67;21.40;;;0.40;99.90;;;;;;4997124;28;20192;-74
2021/03/19 04:53:54;;;;;;;38.37;22.80;;;0.40;99.90;;;;;;5015244;28;20674;-74
2021/03/19 04:56:20;;;;;;;35.87;20.97;;;0.50;99.90;;;;;;5014979;28;20165;-74
2021/03/19 04:58:46;;;;;;;40.37;20.20;;;0.50;99.90;;;;;;4997283;28;20542;-73
2021/03/19 05:01:13;;;;;;;50.37;20.70;;;0.50;99.90;;;;;;5014608;28;20415;-73
2021/03/19 05:03:38;;;;;;;33.47;19.43;;;0.50;99.90;;;;;;5014804;28;20243;-75
2021/03/19 05:06:04;;;;;;;37.27;20.80;;;0.50;99.90;;;;;;5014418;28;20879;-74
2021/03/19 05:08:30;;;;;;;39.60;20.37;;;0.50;99.90;;;;;;5014389;28;20168;-73
2021/03/19 05:10:55;;;;;;;34.87;19.90;;;0.40;99.90;;;;;;5026433;28;20195;-73
2021/03/19 05:13:21;;;;;;;37.40;20.20;;;0.40;99.90;;;;;;5025868;28;20178;-74
2021/03/19 05:15:46;;;;;;;30.20;17.63;;;0.30;99.90;;;;;;5034077;28;20172;-75
2021/03/19 05:18:12;;;;;;;33.30;16.40;;;0.30;99.90;;;;;;5034244;28;20175;-74
2021/03/19 05:20:38;;;;;;;26.93;15.87;;;0.30;99.90;;;;;;5034391;28;20211;-74
2021/03/19 05:23:34;;;;;;;30.47;16.53;;;0.20;99.90;;;;;;5033908;28;20907;-74
2021/03/19 05:26:00;;;;;;;29.33;17.87;;;0.20;99.90;;;;;;5033579;28;20188;-73
2021/03/19 05:28:27;;;;;;;33.40;18.07;;;0.20;99.90;;;;;;5033451;28;20876;-74
2021/03/19 05:30:53;;;;;;;31.27;17.40;;;0.20;99.90;;;;;;5025833;28;20211;-73
2021/03/19 05:33:25;;;;;;;35.37;19.00;;;0.10;99.90;;;;;;5014083;28;20399;-74
2021/03/19 05:35:51;;;;;;;32.83;19.67;;;0.10;99.90;;;;;;5013691;28;20415;-73
2021/03/19 05:38:17;;;;;;;34.37;19.97;;;0.20;99.90;;;;;;5013828;28;20422;-73
2021/03/19 05:40:52;;;;;;;32.77;17.47;;;0.20;99.90;;;;;;5026285;28;20819;-74
2021/03/19 05:43:41;;;;;;;30.90;16.97;;;0.20;99.90;;;;;;5019347;28;20163;-74
2021/03/19 05:46:10;;;;;;;37.20;19.50;;;0.30;99.90;;;;;;5025915;28;20761;-76
2021/03/19 05:48:38;;;;;;;32.57;17.63;;;0.20;99.90;;;;;;5032642;28;20506;-74
2021/03/19 05:51:06;;;;;;;30.67;18.20;;;0.30;99.90;;;;;;5032724;28;20418;-76
2021/03/19 05:53:49;;;;;;;35.97;18.47;;;0.40;99.90;;;;;;5012866;28;20415;-75
2021/03/19 05:56:17;;;;;;;32.53;18.20;;;0.40;99.90;;;;;;5031312;28;20414;-74
2021/03/19 05:58:45;;;;;;;37.53;20.50;;;0.40;99.90;;;;;;5033540;28;20391;-74
2021/03/19 06:01:11;;;;;;;27.77;17.03;;;0.40;99.90;;;;;;5033266;28;20431;-74
2021/03/19 06:03:37;;;;;;;35.10;18.30;;;0.30;99.90;;;;;;5024971;28;20480;-74
2021/03/19 06:06:09;;;;;;;30.43;17.47;;;0.40;99.90;;;;;;5032756;28;20442;-75
2021/03/19 06:08:41;;;;;;;26.80;16.67;;;0.30;99.90;;;;;;5032656;28;20171;-74
2021/03/19 06:11:13;;;;;;;25.73;15.67;;;0.40;99.90;;;;;;5019082;28;20438;-75
2021/03/19 06:13:52;;;;;;;35.73;18.47;;;0.50;99.90;;;;;;5024307;28;20400;-75
2021/03/19 06:16:35;;;;;;;25.47;17.47;;;0.50;99.90;;;;;;5031259;28;20437;-74
2021/03/19 06:19:29;;;;;;;31.23;18.43;;;0.50;99.90;;;;;;5032891;28;20508;-75
2021/03/19 06:22:22;;;;;;;28.27;17.40;;;0.40;99.90;;;;;;5025307;28;20521;-74
2021/03/19 06:25:00;;;;;;;29.77;17.57;;;0.40;99.90;;;;;;5033230;28;20387;-76
2021/03/19 06:27:46;;;;;;;24.67;15.70;;;0.40;99.90;;;;;;5032486;28;20414;-75
2021/03/19 06:30:21;;;;;;;29.10;18.37;;;0.30;99.90;;;;;;5030582;28;20993;-75
2021/03/19 06:32:59;;;;;;;27.90;16.40;;;0.30;99.90;;;;;;5013063;28;20922;-73
2021/03/19 06:35:31;;;;;;;30.30;17.33;;;0.20;99.90;;;;;;5019433;28;20475;-74
2021/03/19 06:38:26;;;;;;;28.00;18.17;;;0.30;99.90;;;;;;5031333;28;20438;-74
2021/03/19 06:40:53;;;;;;;34.60;20.13;;;0.30;99.90;;;;;;5032517;28;20465;-74
2021/03/19 06:43:29;;;;;;;30.70;18.40;;;0.60;99.90;;;;;;5032440;28;20438;-74
2021/03/19 06:46:20;;;;;;;30.77;17.50;;;0.60;99.90;;;;;;5032441;28;20488;-73
2021/03/19 06:49:00;;;;;;;28.77;18.00;;;0.70;99.90;;;;;;5032246;28;20405;-74
2021/03/19 06:51:38;;;;;;;33.40;20.77;;;1.00;99.90;;;;;;5031063;28;20437;-74
2021/03/19 06:54:11;;;;;;;27.37;15.87;;;1.20;99.90;;;;;;5032773;28;20407;-75
2021/03/19 06:56:38;;;;;;;23.63;16.00;;;1.80;99.90;;;;;;5026690;28;20411;-74
2021/03/19 06:59:39;;;;;;;24.63;15.27;;;1.90;99.90;;;;;;5029242;28;20442;-75
2021/03/19 07:02:42;;;;;;;28.03;15.30;;;1.80;99.90;;;;;;5032096;28;20537;-75
2021/03/19 07:05:53;;;;;;;16.70;13.67;;;2.80;99.90;;;;;;5014580;28;20414;-75
2021/03/19 07:08:53;;;;;;;15.90;12.27;;;4.30;99.90;;;;;;4987532;28;20477;-74
2021/03/19 07:11:33;;;;;;;15.37;12.40;;;4.20;99.90;;;;;;5024520;28;20451;-73
2021/03/19 07:14:15;;;;;;;18.07;12.47;;;3.30;99.90;;;;;;5024007;28;20437;-73
2021/03/19 07:17:33;;;;;;;17.50;12.40;;;3.80;99.90;;;;;;5014064;28;20410;-74
2021/03/19 07:20:14;;;;;;;15.73;11.67;;;4.10;99.90;;;;;;5027653;28;20600;-74
2021/03/19 07:23:08;;;;;;;12.30;9.90;;;4.70;99.90;;;;;;5032072;28;20402;-75
2021/03/19 07:25:53;;;;;;;13.30;10.50;;;4.80;99.90;;;;;;5020981;28;20481;-74
2021/03/19 07:28:53;;;;;;;13.33;10.47;;;4.60;99.90;;;;;;5031774;28;20394;-75
2021/03/19 07:31:49;;;;;;;15.47;9.80;;;4.90;99.90;;;;;;5002377;28;20493;-75
2021/03/19 07:34:39;;;;;;;18.40;12.90;;;4.20;99.90;;;;;;5012298;28;20793;-73
2021/03/19 07:37:15;;;;;;;13.03;10.97;;;3.80;99.90;;;;;;5011626;28;20923;-75
2021/03/19 07:40:00;;;;;;;11.77;10.40;;;3.90;99.90;;;;;;4994483;28;20489;-74
2021/03/19 07:43:00;;;;;;;12.30;11.07;;;3.90;99.90;;;;;;5004839;28;20415;-73
2021/03/19 07:45:37;;;;;;;13.13;11.00;;;3.30;99.90;;;;;;5013538;28;20783;-76
2021/03/19 07:48:22;;;;;;;14.37;10.57;;;3.00;99.90;;;;;;5012562;28;20453;-73
2021/03/19 07:51:19;;;;;;;17.43;11.90;;;3.00;99.90;;;;;;5012286;28;20461;-73
2021/03/19 07:54:04;;;;;;;13.23;10.47;;;3.10;99.90;;;;;;5012490;28;20426;-71
2021/03/19 07:56:46;;;;;;;11.57;9.77;;;3.30;99.90;;;;;;5011737;28;20423;-72
2021/03/19 07:59:19;;;;;;;14.67;9.77;;;3.00;99.90;;;;;;5011715;28;21081;-74
2021/03/19 08:01:56;;;;;;;13.63;9.77;;;3.20;99.90;;;;;;5016857;28;20445;-73
2021/03/19 08:04:38;;;;;;;12.87;9.73;;;3.30;99.90;;;;;;5017557;28;20410;-73
2021/03/19 08:07:27;;;;;;;12.20;9.57;;;3.40;99.90;;;;;;5012420;28;20392;-74
2021/03/19 08:10:24;;;;;;;14.93;9.60;;;3.50;99.90;;;;;;5020435;28;20839;-73
2021/03/19 08:13:04;;;;;;;13.40;10.07;;;3.60;99.90;;;;;;5031783;28;20434;-74
2021/03/19 08:15:51;;;;;;;13.50;9.63;;;3.20;99.90;;;;;;5032892;28;20954;-72
2021/03/19 08:18:23;;;;;;;14.87;9.70;;;3.10;99.90;;;;;;5027515;28;20926;-73
2021/03/19 08:21:24;;;;;;;15.97;9.70;;;3.30;99.90;;;;;;5015578;28;20541;-72
2021/03/19 08:23:55;;;;;;;19.20;10.57;;;3.20;99.90;;;;;;5015566;28;20482;-72
2021/03/19 08:26:35;;;;;;;17.03;11.57;;;3.00;99.90;;;;;;5015409;28;20399;-72
2021/03/19 08:29:28;;;;;;;13.70;10.73;;;3.40;99.90;;;;;;5022694;28;20800;-74
2021/03/19 08:32:30;;;;;;;17.07;10.23;;;3.10;99.90;;;;;;5036460;28;20446;-77
2021/03/19 08:35:03;;;;;;;13.67;10.10;;;3.30;99.90;;;;;;5035146;28;20414;-75
2021/03/19 08:38:07;;;;;;;18.00;11.77;;;3.20;99.90;;;;;;5041333;28;20398;-74
2021/03/19 08:40:35;;;;;;;14.63;9.90;;;2.80;99.90;;;;;;5046624;28;20453;-72
2021/03/19 08:43:04;;;;;;;13.07;9.90;;;2.90;99.90;;;;;;5045942;28;20956;-74
2021/03/19 08:45:31;;;;;;;13.50;9.07;;;2.70;99.90;;;;;;5034851;28;20930;-73
2021/03/19 08:48:00;;;;;;;12.83;9.47;;;2.60;99.90;;;;;;5017193;28;20417;-74
2021/03/19 08:50:37;;;;;;;14.07;9.30;;;2.40;99.90;;;;;;5034913;28;20438;-74
2021/03/19 08:53:14;;;;;;;14.63;8.87;;;2.50;99.90;;;;;;5038531;28;20503;-75
2021/03/19 08:55:43;;;;;;;15.50;9.20;;;2.50;99.90;;;;;;5038544;28;20414;-73
2021/03/19 08:58:27;;;;;;;14.43;9.67;;;2.50;99.90;;;;;;5040219;28;20461;-74
2021/03/19 09:01:05;;;;;;;16.30;9.97;;;2.40;99.90;;;;;;5036533;28;20523;-75
2021/03/19 09:03:43;;;;;;;16.83;10.20;;;2.30;99.90;;;;;;5036891;28;20409;-74
2021/03/19 09:06:19;;;;;;;13.53;9.50;;;2.30;99.90;;;;;;5018525;28;20410;-75
2021/03/19 09:08:47;;;;;;;12.40;9.50;;;2.30;99.90;;;;;;5034391;28;20410;-76
2021/03/19 09:11:19;;;;;;;13.43;9.93;;;2.30;99.90;;;;;;5032815;28;20422;-75
2021/03/19 09:14:00;;;;;;;17.43;10.93;;;2.30;99.90;;;;;;5014728;28;20446;-76
2021/03/19 09:16:55;;;;;;;13.57;10.70;;;2.40;99.90;;;;;;4997182;28;20407;-75
2021/03/19 09:19:40;;;;;;;12.33;10.13;;;2.50;99.90;;;;;;5014587;28;20451;-74
2021/03/19 09:22:24;;;;;;;16.00;10.40;;;2.80;99.90;;;;;;5014553;28;20407;-75
2021/03/19 09:25:08;;;;;;;11.83;7.83;;;3.00;99.90;;;;;;5014090;28;20482;-74
2021/03/19 09:27:37;;;;;;;12.63;9.80;;;3.20;99.90;;;;;;5013686;28;20398;-73
2021/03/19 09:30:08;;;;;;;9.20;7.17;;;3.20;99.90;;;;;;5014556;28;20443;-72
2021/03/19 09:32:47;;;;;;;9.33;6.93;;;3.30;99.90;;;;;;5033892;28;21093;-74
2021/03/19 09:35:39;;;;;;;9.47;6.00;;;3.40;99.90;;;;;;5033765;28;20952;-73
2021/03/19 09:38:13;;;;;;;8.10;6.83;;;3.20;99.90;;;;;;5033690;28;20399;-72
2021/03/19 09:41:01;;;;;;;7.37;5.80;;;3.20;99.90;;;;;;5033511;28;20458;-73
2021/03/19 09:43:36;;;;;;;7.03;6.33;;;3.20;99.90;;;;;;5033301;28;20824;-73
2021/03/19 09:46:06;;;;;;;8.17;5.80;;;3.10;99.90;;;;;;5033918;28;20408;-71
2021/03/19 09:48:34;;;;;;;8.50;5.40;;;3.20;99.90;;;;;;5032681;28;20494;-73
2021/03/19 09:51:04;;;;;;;8.63;6.00;;;3.20;99.90;;;;;;5033348;28;20426;-72
2021/03/19 09:53:33;;;;;;;7.23;4.67;;;3.20;99.90;;;;;;5033370;28;20411;-72
2021/03/19 09:56:03;;;;;;;5.97;5.37;;;3.20;99.90;;;;;;5033223;28;20421;-72
2021/03/19 09:58:50;;;;;;;7.13;5.57;;;3.00;99.90;;;;;;5033414;28;20797;-71
2021/03/19 10:01:39;;;;;;;6.43;4.97;;;3.10;99.90;;;;;;5032197;28;20479;-72
2021/03/19 10:04:07;;;;;;;5.50;4.53;;;3.40;99.90;;;;;;5013965;28;20395;-72
2021/03/19 10:06:45;;;;;;;6.40;4.80;;;3.40;99.90;;;;;;5027392;28;20917;-73
2021/03/19 10:09:18;;;;;;;5.97;3.63;;;3.60;99.90;;;;;;5028634;28;20564;-73
2021/03/19 10:11:50;;;;;;;3.83;3.53;;;3.70;99.90;;;;;;5026840;28;20434;-73
2021/03/19 10:14:33;;;;;;;4.90;4.23;;;3.80;99.90;;;;;;5031554;28;20489;-73
2021/03/19 10:17:22;;;;;;;5.60;4.20;;;3.80;99.90;;;;;;5033511;28;20878;-72
2021/03/19 10:19:52;;;;;;;4.93;4.40;;;3.70;99.90;;;;;;5033123;28;20484;-72
2021/03/19 10:22:40;;;;;;;7.60;5.80;;;3.80;99.90;;;;;;5018229;28;20432;-71
2021/03/19 10:25:33;;;;;;;6.83;4.73;;;3.70;99.90;;;;;;5039822;28;20399;-73
2021/03/19 10:28:24;;;;;;;4.43;4.03;;;3.80;99.90;;;;;;5035011;28;20411;-74
2021/03/19 10:31:13;;;;;;;4.50;3.10;;;4.00;99.90;;;;;;5028254;28;20454;-73
2021/03/19 10:33:44;;;;;;;6.33;3.03;;;4.20;99.90;;;;;;5016033;28;20481;-73
2021/03/19 10:36:20;;;;;;;3.83;3.03;;;4.20;99.90;;;;;;5025705;28;20410;-73
2021/03/19 10:38:58;;;;;;;5.10;3.07;;;4.10;99.90;;;;;;5016600;28;20464;-73
2021/03/19 10:41:39;;;;;;;3.90;2.93;;;4.10;99.90;;;;;;5034841;28;20433;-73
2021/03/19 10:44:24;;;;;;;3.53;2.70;;;4.20;99.90;;;;;;5035268;28;20925;-72
2021/03/19 10:47:01;;;;;;;3.43;3.17;;;4.20;99.90;;;;;;5031800;28;20920;-71
2021/03/19 10:50:02;;;;;;;3.60;2.93;;;4.40;99.90;;;;;;5033136;28;20410;-70
2021/03/19 10:52:34;;;;;;;4.50;3.30;;;4.60;99.90;;;;;;5016994;28;20907;-72
2021/03/19 10:55:04;;;;;;;3.07;2.67;;;5.00;99.90;;;;;;4995875;28;20416;-72
2021/03/19 10:57:35;;;;;;;2.93;2.60;;;5.20;99.90;;;;;;5012738;28;20411;-71
2021/03/19 11:00:32;;;;;;;3.20;1.90;;;5.30;99.90;;;;;;5012823;28;20463;-72
2021/03/19 11:03:01;;;;;;;3.30;2.27;;;5.20;99.90;;;;;;5029296;28;20413;-72
2021/03/19 11:05:27;;;;;;;3.17;2.73;;;5.00;99.90;;;;;;5024470;28;20459;-71
2021/03/19 11:07:53;;;;;;;6.40;2.40;;;4.90;99.90;;;;;;5016798;28;20903;-72
2021/03/19 11:10:37;;;;;;;3.80;3.00;;;4.90;99.90;;;;;;5022161;28;20485;-73
2021/03/19 11:13:25;;;;;;;2.80;2.10;;;4.80;99.90;;;;;;5016080;28;20164;-73
2021/03/19 11:15:54;;;;;;;3.53;2.60;;;4.70;99.90;;;;;;5016462;28;20457;-73
2021/03/19 11:18:32;;;;;;;4.00;2.47;;;4.60;99.90;;;;;;5032778;28;20413;-72
2021/03/19 11:21:06;;;;;;;3.57;1.90;;;4.40;99.90;;;;;;5033252;28;20458;-73
2021/03/19 11:23:39;;;;;;;3.30;2.47;;;4.40;99.90;;;;;;5032905;28;20394;-72
2021/03/19 11:26:30;;;;;;;1.73;1.60;;;4.20;99.90;;;;;;5012786;28;20418;-72
2021/03/19 11:29:19;;;;;;;3.10;2.33;;;4.00;99.90;;;;;;4995004;28;20422;-72
2021/03/19 11:32:04;;;;;;;2.70;1.50;;;3.90;99.90;;;;;;5027045;28;20530;-73
2021/03/19 11:34:39;;;;;;;2.10;1.43;;;4.00;99.90;;;;;;5031948;28;20797;-73
2021/03/19 11:37:20;;;;;;;1.93;1.77;;;4.30;99.90;;;;;;5032250;28;20745;-71
2021/03/19 11:39:49;;;;;;;7.03;1.67;;;4.40;99.90;;;;;;5032362;28;20453;-70
2021/03/19 11:42:16;;;;;;;2.70;1.60;;;4.50;99.90;;;;;;5031780;28;20518;-71
2021/03/19 11:44:44;;;;;;;1.53;1.23;;;4.40;99.90;;;;;;5031730;28;20872;-71
2021/03/19 11:47:18;;;;;;;2.07;1.23;;;4.30;99.90;;;;;;5013850;28;20406;-73
2021/03/19 11:49:45;;;;;;;2.87;1.17;;;4.40;99.90;;;;;;5023427;28;20405;-72
2021/03/19 11:52:12;;;;;;;2.30;1.73;;;4.30;99.90;;;;;;5035424;28;20408;-71
2021/03/19 11:54:38;;;;;;;3.13;1.60;;;4.20;99.90;;;;;;5035607;28;20418;-70
2021/03/19 11:57:05;;;;;;;2.67;1.40;;;4.20;99.90;;;;;;5017517;28;20420;-72
2021/03/19 11:59:31;;;;;;;8.30;1.93;;;4.20;99.90;;;;;;5035339;28;20199;-72
2021/03/19 12:01:59;;;;;;;2.60;1.53;;;4.30;99.90;;;;;;5035295;28;20441;-72
2021/03/19 12:04:24;;;;;;;5.77;1.93;;;4.40;99.90;;;;;;5035478;28;20164;-72
2021/03/19 12:06:51;;;;;;;1.43;1.33;;;4.50;99.90;;;;;;5034926;28;20414;-71
2021/03/19 12:09:17;;;;;;;2.20;1.67;;;4.40;99.90;;;;;;5033304;28;20167;-71
2021/03/19 12:11:43;;;;;;;3.43;1.43;;;4.60;99.90;;;;;;5035372;28;20457;-72
2021/03/19 12:14:22;;;;;;;1.23;1.13;;;5.00;99.90;;;;;;5035144;28;20179;-71
2021/03/19 12:16:48;;;;;;;1.70;1.23;;;5.10;99.90;;;;;;5034577;28;20425;-71
2021/03/19 12:19:15;;;;;;;3.43;3.13;;;5.00;99.90;;;;;;5035107;28;20510;-71
2021/03/19 12:21:41;;;;;;;2.40;1.40;;;5.00;99.90;;;;;;5034687;28;20938;-71
2021/03/19 12:24:07;;;;;;;4.93;1.77;;;4.80;99.90;;;;;;5016990;28;20497;-71
2021/03/19 12:26:33;;;;;;;8.07;1.60;;;4.70;99.90;;;;;;5034746;28;21025;-71
2021/03/19 12:28:58;;;;;;;2.00;1.30;;;4.50;99.90;;;;;;5035260;28;20605;-72
2021/03/19 12:31:24;;;;;;;2.40;1.40;;;4.60;99.90;;;;;;5023783;28;20554;-72
2021/03/19 12:33:49;;;;;;;6.93;1.63;;;4.30;99.90;;;;;;5015508;28;20175;-72
2021/03/19 12:36:15;;;;;;;1.87;1.43;;;4.10;99.90;;;;;;5017791;28;20192;-71
2021/03/19 12:38:40;;;;;;;2.67;1.40;;;4.10;99.90;;;;;;5015850;28;20251;-71
2021/03/19 12:41:06;;;;;;;4.03;1.83;;;4.30;99.90;;;;;;5014631;28;20676;-71
2021/03/19 12:43:32;;;;;;;1.60;1.50;;;4.30;99.90;;;;;;5014646;28;20164;-71
2021/03/19 12:45:57;;;;;;;2.43;1.30;;;4.40;99.90;;;;;;5014378;28;20177;-72
2021/03/19 12:48:23;;;;;;;2.80;1.57;;;4.40;99.90;;;;;;5032966;28;20263;-71
2021/03/19 12:50:49;;;;;;;1.97;1.33;;;4.40;99.90;;;;;;5011590;28;20192;-75
2021/03/19 12:53:18;;;;;;;2.77;1.57;;;4.50;99.90;;;;;;5006455;28;20410;-73
2021/03/19 12:55:44;;;;;;;2.30;1.50;;;4.60;99.90;;;;;;5015646;28;20426;-72
2021/03/19 12:58:11;;;;;;;1.50;1.40;;;4.70;99.90;;;;;;4998717;28;20415;-75
2021/03/19 13:00:38;;;;;;;3.03;2.00;;;4.50;99.90;;;;;;5014901;28;20470;-71
2021/03/19 13:03:08;;;;;;;1.60;1.37;;;4.60;99.90;;;;;;5023367;28;20419;-72
2021/03/19 13:05:35;;;;;;;4.37;2.33;;;4.70;99.90;;;;;;5012021;28;20411;-72
2021/03/19 13:08:00;;;;;;;2.63;1.83;;;4.70;99.90;;;;;;5012728;28;20446;-73
2021/03/19 13:10:29;;;;;;;3.60;1.47;;;4.70;99.90;;;;;;5031974;28;20674;-76
2021/03/19 13:12:55;;;;;;;1.63;1.53;;;4.90;99.90;;;;;;5025683;28;20410;-73
2021/03/19 13:15:30;;;;;;;2.30;1.23;;;4.80;99.90;;;;;;5033647;28;20502;-75
2021/03/19 13:17:57;;;;;;;4.17;2.70;;;4.70;99.90;;;;;;5034052;28;20174;-73
2021/03/19 13:20:24;;;;;;;2.67;2.03;;;4.70;99.90;;;;;;5015698;28;20472;-74
2021/03/19 13:22:50;;;;;;;2.40;2.13;;;4.70;99.90;;;;;;5033932;28;20406;-73